sensor_id;sensor_type;location;lat;lon;timestamp;pressure;altitude;pressure_sealevel;temperature;humidity
46836;BME280;32573;51.290;6.926;2023-05-07T00:00:30;100203.53;;;15.51;100.00
46836;BME280;32573;51.290;6.926;2023-05-07T00:03:01;100209.66;;;15.48;100.00
46836;BME280;32573;51.290;6.926;2023-05-07T00:05:31;100208.78;;;15.48;100.00
46836;BME280;32573;51.290;6.926;2023-05-07T00:07:59;100207.00;;;15.48;100.00
46836;BME280;32573;51.290;6.926;2023-05-07T00:10:28;100199.94;;;15.47;100.00
46836;BME280;32573;51.290;6.926;2023-05-07T00:12:56;100195.53;;;15.45;100.00
46836;BME280;32573;51.290;6.926;2023-05-07T00:15:25;100192.03;;;15.46;100.00
46836;BME280;32573;51.290;6.926;2023-05-07T00:17:55;100190.25;;;15.45;100.00
46836;BME280;32573;51.290;6.926;2023-05-07T00:20:24;100194.66;;;15.44;100.00
46836;BME280;32573;51.290;6.926;2023-05-07T00:22:54;100193.78;;;15.44;100.00
46836;BME280;32573;51.290;6.926;2023-05-07T00:25:23;100192.91;;;15.43;100.00
46836;BME280;32573;51.290;6.926;2023-05-07T00:27:51;100195.50;;;15.42;100.00
46836;BME280;32573;51.290;6.926;2023-05-07T00:30:20;100182.31;;;15.42;100.00
46836;BME280;32573;51.290;6.926;2023-05-07T00:32:49;100181.41;;;15.40;100.00
46836;BME280;32573;51.290;6.926;2023-05-07T00:35:18;100186.69;;;15.40;100.00
46836;BME280;32573;51.290;6.926;2023-05-07T00:37:46;100184.06;;;15.38;100.00
46836;BME280;32573;51.290;6.926;2023-05-07T00:40:17;100176.13;;;15.37;100.00
46836;BME280;32573;51.290;6.926;2023-05-07T00:42:46;100184.03;;;15.37;100.00
46836;BME280;32573;51.290;6.926;2023-05-07T00:45:16;100187.56;;;15.36;100.00
46836;BME280;32573;51.290;6.926;2023-05-07T00:47:45;100184.94;;;15.36;100.00
46836;BME280;32573;51.290;6.926;2023-05-07T00:50:14;100175.22;;;15.35;100.00
46836;BME280;32573;51.290;6.926;2023-05-07T00:52:43;100176.09;;;15.34;100.00
46836;BME280;32573;51.290;6.926;2023-05-07T00:55:11;100172.56;;;15.31;100.00
46836;BME280;32573;51.290;6.926;2023-05-07T00:57:43;100179.59;;;15.29;100.00
46836;BME280;32573;51.290;6.926;2023-05-07T01:00:14;100176.94;;;15.28;100.00
46836;BME280;32573;51.290;6.926;2023-05-07T01:02:43;100179.56;;;15.26;100.00
46836;BME280;32573;51.290;6.926;2023-05-07T01:05:14;100184.81;;;15.23;100.00
46836;BME280;32573;51.290;6.926;2023-05-07T01:07:44;100185.66;;;15.21;100.00
46836;BME280;32573;51.290;6.926;2023-05-07T01:10:14;100183.88;;;15.18;100.00
46836;BME280;32573;51.290;6.926;2023-05-07T01:12:45;100188.25;;;15.16;100.00
46836;BME280;32573;51.290;6.926;2023-05-07T01:15:14;100188.25;;;15.13;100.00
46836;BME280;32573;51.290;6.926;2023-05-07T01:17:44;100188.19;;;15.08;100.00
46836;BME280;32573;51.290;6.926;2023-05-07T01:20:20;100184.63;;;15.05;100.00
46836;BME280;32573;51.290;6.926;2023-05-07T01:22:53;100176.69;;;15.02;100.00
46836;BME280;32573;51.290;6.926;2023-05-07T01:25:22;100179.28;;;14.99;100.00
46836;BME280;32573;51.290;6.926;2023-05-07T01:27:53;100190.69;;;14.96;100.00
46836;BME280;32573;51.290;6.926;2023-05-07T01:30:27;100180.13;;;14.93;100.00
46836;BME280;32573;51.290;6.926;2023-05-07T01:32:59;100180.97;;;14.92;100.00
46836;BME280;32573;51.290;6.926;2023-05-07T01:35:33;100181.84;;;14.91;100.00
46836;BME280;32573;51.290;6.926;2023-05-07T01:38:05;100178.34;;;14.91;100.00
46836;BME280;32573;51.290;6.926;2023-05-07T01:40:34;100169.53;;;14.90;100.00
46836;BME280;32573;51.290;6.926;2023-05-07T01:43:02;100172.16;;;14.88;100.00
46836;BME280;32573;51.290;6.926;2023-05-07T01:45:34;100172.16;;;14.88;100.00
46836;BME280;32573;51.290;6.926;2023-05-07T01:48:03;100177.41;;;14.87;100.00
46836;BME280;32573;51.290;6.926;2023-05-07T01:50:33;100169.50;;;14.87;100.00
46836;BME280;32573;51.290;6.926;2023-05-07T01:53:04;100168.59;;;14.85;100.00
46836;BME280;32573;51.290;6.926;2023-05-07T01:55:32;100169.50;;;14.85;100.00
46836;BME280;32573;51.290;6.926;2023-05-07T01:58:01;100165.97;;;14.85;100.00
46836;BME280;32573;51.290;6.926;2023-05-07T02:00:31;100160.69;;;14.83;100.00
46836;BME280;32573;51.290;6.926;2023-05-07T02:03:00;100162.44;;;14.83;100.00
46836;BME280;32573;51.290;6.926;2023-05-07T02:05:42;100162.44;;;14.81;100.00
46836;BME280;32573;51.290;6.926;2023-05-07T02:08:34;100164.19;;;14.81;100.00
46836;BME280;32573;51.290;6.926;2023-05-07T02:11:03;100164.16;;;14.79;100.00
46836;BME280;32573;51.290;6.926;2023-05-07T02:13:33;100165.03;;;14.78;100.00
46836;BME280;32573;51.290;6.926;2023-05-07T02:16:02;100157.97;;;14.77;100.00
46836;BME280;32573;51.290;6.926;2023-05-07T02:18:31;100159.72;;;14.77;100.00
46836;BME280;32573;51.290;6.926;2023-05-07T02:21:00;100163.25;;;14.77;100.00
46836;BME280;32573;51.290;6.926;2023-05-07T02:23:29;100160.59;;;14.74;100.00
46836;BME280;32573;51.290;6.926;2023-05-07T02:25:58;100162.31;;;14.72;100.00
46836;BME280;32573;51.290;6.926;2023-05-07T02:28:27;100162.31;;;14.71;100.00
46836;BME280;32573;51.290;6.926;2023-05-07T02:31:02;100154.34;;;14.67;100.00
46836;BME280;32573;51.290;6.926;2023-05-07T02:33:31;100158.75;;;14.65;100.00
46836;BME280;32573;51.290;6.926;2023-05-07T02:36:07;100158.72;;;14.64;100.00
46836;BME280;32573;51.290;6.926;2023-05-07T02:38:40;100154.34;;;14.63;100.00
46836;BME280;32573;51.290;6.926;2023-05-07T02:41:10;100163.97;;;14.61;100.00
46836;BME280;32573;51.290;6.926;2023-05-07T02:43:38;100156.03;;;14.58;100.00
46836;BME280;32573;51.290;6.926;2023-05-07T02:46:08;100149.81;;;14.54;100.00
46836;BME280;32573;51.290;6.926;2023-05-07T02:48:41;100160.34;;;14.53;100.00
46836;BME280;32573;51.290;6.926;2023-05-07T02:51:10;100161.16;;;14.49;100.00
46836;BME280;32573;51.290;6.926;2023-05-07T02:53:40;100157.59;;;14.46;100.00
46836;BME280;32573;51.290;6.926;2023-05-07T02:56:11;100166.38;;;14.45;100.00
46836;BME280;32573;51.290;6.926;2023-05-07T02:58:39;100159.34;;;14.44;100.00
46836;BME280;32573;51.290;6.926;2023-05-07T03:01:09;100165.44;;;14.42;100.00
46836;BME280;32573;51.290;6.926;2023-05-07T03:03:45;100165.41;;;14.39;100.00
46836;BME280;32573;51.290;6.926;2023-05-07T03:06:14;100173.28;;;14.37;100.00
46836;BME280;32573;51.290;6.926;2023-05-07T03:08:42;100179.44;;;14.36;100.00
46836;BME280;32573;51.290;6.926;2023-05-07T03:11:12;100176.75;;;14.33;100.00
46836;BME280;32573;51.290;6.926;2023-05-07T03:13:41;100174.97;;;14.32;100.00
46836;BME280;32573;51.290;6.926;2023-05-07T03:16:10;100179.34;;;14.30;100.00
46836;BME280;32573;51.290;6.926;2023-05-07T03:18:39;100174.03;;;14.27;100.00
46836;BME280;32573;51.290;6.926;2023-05-07T03:21:07;100177.56;;;14.26;100.00
46836;BME280;32573;51.290;6.926;2023-05-07T03:23:36;100172.25;;;14.24;100.00
46836;BME280;32573;51.290;6.926;2023-05-07T03:26:05;100166.97;;;14.23;100.00
46836;BME280;32573;51.290;6.926;2023-05-07T03:28:34;100166.06;;;14.21;100.00
46836;BME280;32573;51.290;6.926;2023-05-07T03:31:06;100158.16;;;14.19;100.00
46836;BME280;32573;51.290;6.926;2023-05-07T03:33:35;100151.13;;;14.18;100.00
46836;BME280;32573;51.290;6.926;2023-05-07T03:36:07;100151.09;;;14.17;100.00
46836;BME280;32573;51.290;6.926;2023-05-07T03:38:35;100144.03;;;14.14;100.00
46836;BME280;32573;51.290;6.926;2023-05-07T03:41:05;100153.69;;;14.14;100.00
46836;BME280;32573;51.290;6.926;2023-05-07T03:43:36;100150.16;;;14.12;100.00
46836;BME280;32573;51.290;6.926;2023-05-07T03:46:08;100144.84;;;14.10;100.00
46836;BME280;32573;51.290;6.926;2023-05-07T03:48:37;100144.84;;;14.09;100.00
46836;BME280;32573;51.290;6.926;2023-05-07T03:51:06;100151.84;;;14.07;100.00
46836;BME280;32573;51.290;6.926;2023-05-07T03:53:35;100152.69;;;14.04;100.00
46836;BME280;32573;51.290;6.926;2023-05-07T03:56:04;100153.50;;;14.00;100.00
46836;BME280;32573;51.290;6.926;2023-05-07T03:58:38;100153.50;;;13.98;100.00
46836;BME280;32573;51.290;6.926;2023-05-07T04:01:09;100156.94;;;13.94;100.00
46836;BME280;32573;51.290;6.926;2023-05-07T04:03:38;100165.69;;;13.93;100.00
46836;BME280;32573;51.290;6.926;2023-05-07T04:06:07;100171.81;;;13.91;100.00
46836;BME280;32573;51.290;6.926;2023-05-07T04:08:36;100174.41;;;13.89;100.00
46836;BME280;32573;51.290;6.926;2023-05-07T04:11:06;100177.00;;;13.88;100.00
46836;BME280;32573;51.290;6.926;2023-05-07T04:13:38;100174.38;;;13.86;100.00
46836;BME280;32573;51.290;6.926;2023-05-07T04:16:08;100178.75;;;13.86;100.00
46836;BME280;32573;51.290;6.926;2023-05-07T04:18:38;100188.38;;;13.85;100.00
46836;BME280;32573;51.290;6.926;2023-05-07T04:21:14;100181.34;;;13.84;100.00
46836;BME280;32573;51.290;6.926;2023-05-07T04:23:42;100184.84;;;13.83;100.00
46836;BME280;32573;51.290;6.926;2023-05-07T04:26:13;100179.59;;;13.83;100.00
46836;BME280;32573;51.290;6.926;2023-05-07T04:28:44;100179.59;;;13.83;100.00
46836;BME280;32573;51.290;6.926;2023-05-07T04:31:15;100175.19;;;13.84;100.00
46836;BME280;32573;51.290;6.926;2023-05-07T04:33:47;100178.69;;;13.82;100.00
46836;BME280;32573;51.290;6.926;2023-05-07T04:36:16;100179.59;;;13.83;100.00
46836;BME280;32573;51.290;6.926;2023-05-07T04:38:56;100184.84;;;13.83;100.00
46836;BME280;32573;51.290;6.926;2023-05-07T04:41:25;100176.09;;;13.84;100.00
46836;BME280;32573;51.290;6.926;2023-05-07T04:43:55;100176.97;;;13.85;100.00
46836;BME280;32573;51.290;6.926;2023-05-07T04:46:24;100179.59;;;13.85;100.00
46836;BME280;32573;51.290;6.926;2023-05-07T04:48:56;100179.63;;;13.86;100.00
46836;BME280;32573;51.290;6.926;2023-05-07T04:51:25;100177.91;;;13.88;100.00
46836;BME280;32573;51.290;6.926;2023-05-07T04:53:53;100174.41;;;13.89;100.00
46836;BME280;32573;51.290;6.926;2023-05-07T04:56:22;100184.97;;;13.92;100.00
46836;BME280;32573;51.290;6.926;2023-05-07T04:58:51;100171.84;;;13.94;100.00
46836;BME280;32573;51.290;6.926;2023-05-07T05:01:22;100175.38;;;13.96;100.00
46836;BME280;32573;51.290;6.926;2023-05-07T05:03:51;100169.28;;;13.98;100.00
46836;BME280;32573;51.290;6.926;2023-05-07T05:06:20;100172.81;;;14.00;100.00
46836;BME280;32573;51.290;6.926;2023-05-07T05:08:49;100185.13;;;14.05;100.00
46836;BME280;32573;51.290;6.926;2023-05-07T05:11:18;100181.66;;;14.07;100.00
46836;BME280;32573;51.290;6.926;2023-05-07T05:13:48;100175.56;;;14.10;100.00
46836;BME280;32573;51.290;6.926;2023-05-07T05:16:19;100187.91;;;14.14;100.00
46836;BME280;32573;51.290;6.926;2023-05-07T05:18:50;100194.97;;;14.16;100.00
46836;BME280;32573;51.290;6.926;2023-05-07T05:21:19;100197.66;;;14.21;100.00
46836;BME280;32573;51.290;6.926;2023-05-07T05:23:51;100190.69;;;14.23;100.00
46836;BME280;32573;51.290;6.926;2023-05-07T05:26:23;100190.72;;;14.26;100.00
46836;BME280;32573;51.290;6.926;2023-05-07T05:28:51;100195.13;;;14.29;100.00
46836;BME280;32573;51.290;6.926;2023-05-07T05:31:22;100192.50;;;14.30;100.00
46836;BME280;32573;51.290;6.926;2023-05-07T05:33:53;100193.44;;;14.34;100.00
46836;BME280;32573;51.290;6.926;2023-05-07T05:36:22;100189.09;;;14.37;100.00
46836;BME280;32573;51.290;6.926;2023-05-07T05:38:53;100193.56;;;14.43;100.00
46836;BME280;32573;51.290;6.926;2023-05-07T05:41:22;100195.34;;;14.47;100.00
46836;BME280;32573;51.290;6.926;2023-05-07T05:43:51;100194.56;;;14.53;100.00
46836;BME280;32573;51.290;6.926;2023-05-07T05:46:20;100199.91;;;14.57;100.00
46836;BME280;32573;51.290;6.926;2023-05-07T05:48:50;100202.63;;;14.63;100.00
46836;BME280;32573;51.290;6.926;2023-05-07T05:51:20;100201.81;;;14.69;100.00
46836;BME280;32573;51.290;6.926;2023-05-07T05:53:49;100207.16;;;14.75;100.00
46836;BME280;32573;51.290;6.926;2023-05-07T05:56:19;100200.19;;;14.80;100.00
46836;BME280;32573;51.290;6.926;2023-05-07T05:58:48;100203.78;;;14.85;100.00
46836;BME280;32573;51.290;6.926;2023-05-07T06:01:17;100209.09;;;14.92;100.00
46836;BME280;32573;51.290;6.926;2023-05-07T06:03:47;100207.38;;;14.97;100.00
46836;BME280;32573;51.290;6.926;2023-05-07T06:06:17;100206.56;;;15.02;100.00
46836;BME280;32573;51.290;6.926;2023-05-07T06:08:47;100206.63;;;15.10;100.00
46836;BME280;32573;51.290;6.926;2023-05-07T06:11:21;100204.97;;;15.15;100.00
46836;BME280;32573;51.290;6.926;2023-05-07T06:13:50;100211.16;;;15.22;100.00
46836;BME280;32573;51.290;6.926;2023-05-07T06:16:18;100207.69;;;15.27;100.00
46836;BME280;32573;51.290;6.926;2023-05-07T06:18:47;100212.16;;;15.33;100.00
46836;BME280;32573;51.290;6.926;2023-05-07T06:21:16;100213.06;;;15.40;100.00
46836;BME280;32573;51.290;6.926;2023-05-07T06:23:44;100213.13;;;15.44;100.00
46836;BME280;32573;51.290;6.926;2023-05-07T06:26:15;100218.47;;;15.50;100.00
46836;BME280;32573;51.290;6.926;2023-05-07T06:28:46;100215.88;;;15.57;100.00
46836;BME280;32573;51.290;6.926;2023-05-07T06:31:18;100218.56;;;15.61;100.00
46836;BME280;32573;51.290;6.926;2023-05-07T06:33:55;100218.59;;;15.67;100.00
46836;BME280;32573;51.290;6.926;2023-05-07T06:36:29;100223.09;;;15.73;100.00
46836;BME280;32573;51.290;6.926;2023-05-07T06:39:00;100227.53;;;15.79;100.00
46836;BME280;32573;51.290;6.926;2023-05-07T06:41:30;100224.03;;;15.83;100.00
46836;BME280;32573;51.290;6.926;2023-05-07T06:44:06;100223.19;;;15.88;100.00
46836;BME280;32573;51.290;6.926;2023-05-07T06:46:46;100221.47;;;15.93;100.00
46836;BME280;32573;51.290;6.926;2023-05-07T06:49:15;100223.28;;;15.98;100.00
46836;BME280;32573;51.290;6.926;2023-05-07T06:51:44;100225.91;;;16.02;100.00
46836;BME280;32573;51.290;6.926;2023-05-07T06:54:13;100224.22;;;16.09;100.00
46836;BME280;32573;51.290;6.926;2023-05-07T06:56:44;100226.00;;;16.14;100.00
46836;BME280;32573;51.290;6.926;2023-05-07T06:59:13;100220.78;;;16.21;100.00
46836;BME280;32573;51.290;6.926;2023-05-07T07:01:42;100218.16;;;16.27;100.00
46836;BME280;32573;51.290;6.926;2023-05-07T07:04:11;100214.66;;;16.31;100.00
46836;BME280;32573;51.290;6.926;2023-05-07T07:06:42;100215.56;;;16.36;100.00
46836;BME280;32573;51.290;6.926;2023-05-07T07:09:12;100225.28;;;16.43;100.00
46836;BME280;32573;51.290;6.926;2023-05-07T07:11:41;100221.78;;;16.47;100.00
46836;BME280;32573;51.290;6.926;2023-05-07T07:14:11;100223.59;;;16.53;100.00
46836;BME280;32573;51.290;6.926;2023-05-07T07:16:45;100220.06;;;16.58;100.00
46836;BME280;32573;51.290;6.926;2023-05-07T07:19:17;100221.84;;;16.64;100.00
46836;BME280;32573;51.290;6.926;2023-05-07T07:21:49;100223.66;;;16.71;100.00
46836;BME280;32573;51.290;6.926;2023-05-07T07:24:18;100226.31;;;16.76;100.00
46836;BME280;32573;51.290;6.926;2023-05-07T07:26:52;100223.72;;;16.82;100.00
46836;BME280;32573;51.290;6.926;2023-05-07T07:29:24;100223.72;;;16.87;100.00
46836;BME280;32573;51.290;6.926;2023-05-07T07:31:54;100221.97;;;16.92;100.00
46836;BME280;32573;51.290;6.926;2023-05-07T07:34:23;100224.66;;;16.96;100.00
46836;BME280;32573;51.290;6.926;2023-05-07T07:36:51;100222.88;;;17.01;100.00
46836;BME280;32573;51.290;6.926;2023-05-07T07:39:20;100230.84;;;17.06;100.00
46836;BME280;32573;51.290;6.926;2023-05-07T07:41:51;100233.50;;;17.11;100.00
46836;BME280;32573;51.290;6.926;2023-05-07T07:44:21;100228.22;;;17.15;100.00
46836;BME280;32573;51.290;6.926;2023-05-07T07:46:57;100234.41;;;17.17;100.00
46836;BME280;32573;51.290;6.926;2023-05-07T07:49:27;100240.56;;;17.21;100.00
46836;BME280;32573;51.290;6.926;2023-05-07T07:51:57;100233.53;;;17.26;100.00
46836;BME280;32573;51.290;6.926;2023-05-07T07:54:28;100235.28;;;17.29;100.00
46836;BME280;32573;51.290;6.926;2023-05-07T07:56:58;100234.44;;;17.33;100.00
46836;BME280;32573;51.290;6.926;2023-05-07T07:59:26;100237.09;;;17.37;100.00
46836;BME280;32573;51.290;6.926;2023-05-07T08:01:56;100236.22;;;17.43;100.00
46836;BME280;32573;51.290;6.926;2023-05-07T08:04:27;100238.88;;;17.48;100.00
46836;BME280;32573;51.290;6.926;2023-05-07T08:07:01;100244.16;;;17.54;100.00
46836;BME280;32573;51.290;6.926;2023-05-07T08:09:32;100244.16;;;17.60;100.00
46836;BME280;32573;51.290;6.926;2023-05-07T08:12:03;100243.28;;;17.65;100.00
46836;BME280;32573;51.290;6.926;2023-05-07T08:14:33;100241.50;;;17.72;100.00
46836;BME280;32573;51.290;6.926;2023-05-07T08:17:06;100245.06;;;17.77;100.00
46836;BME280;32573;51.290;6.926;2023-05-07T08:19:37;100245.97;;;17.82;100.00
46836;BME280;32573;51.290;6.926;2023-05-07T08:22:08;100247.72;;;17.88;100.00
46836;BME280;32573;51.290;6.926;2023-05-07T08:24:38;100247.72;;;17.94;100.00
46836;BME280;32573;51.290;6.926;2023-05-07T08:27:07;100251.25;;;18.01;100.00
46836;BME280;32573;51.290;6.926;2023-05-07T08:29:37;100248.59;;;18.05;100.00
46836;BME280;32573;51.290;6.926;2023-05-07T08:32:07;100245.03;;;18.11;100.00
46836;BME280;32573;51.290;6.926;2023-05-07T08:34:36;100249.44;;;18.18;100.00
46836;BME280;32573;51.290;6.926;2023-05-07T08:37:06;100252.97;;;18.26;100.00
46836;BME280;32573;51.290;6.926;2023-05-07T08:39:35;100245.00;;;18.34;100.00
46836;BME280;32573;51.290;6.926;2023-05-07T08:42:09;100248.50;;;18.44;100.00
46836;BME280;32573;51.290;6.926;2023-05-07T08:44:39;100254.66;;;18.52;100.00
46836;BME280;32573;51.290;6.926;2023-05-07T08:47:10;100251.13;;;18.58;100.00
46836;BME280;32573;51.290;6.926;2023-05-07T08:49:39;100245.78;;;18.65;100.00
46836;BME280;32573;51.290;6.926;2023-05-07T08:52:08;100251.03;;;18.74;100.00
46836;BME280;32573;51.290;6.926;2023-05-07T08:54:38;100249.31;;;18.80;100.00
46836;BME280;32573;51.290;6.926;2023-05-07T08:57:09;100248.38;;;18.85;100.00
46836;BME280;32573;51.290;6.926;2023-05-07T08:59:39;100253.66;;;18.93;100.00
46836;BME280;32573;51.290;6.926;2023-05-07T09:02:11;100246.53;;;19.01;100.00
46836;BME280;32573;51.290;6.926;2023-05-07T09:04:40;100242.97;;;19.08;100.00
46836;BME280;32573;51.290;6.926;2023-05-07T09:07:09;100248.25;;;19.13;100.00
46836;BME280;32573;51.290;6.926;2023-05-07T09:09:41;100248.22;;;19.17;100.00
46836;BME280;32573;51.290;6.926;2023-05-07T09:12:13;100247.28;;;19.22;100.00
46836;BME280;32573;51.290;6.926;2023-05-07T09:14:41;100240.19;;;19.27;100.00
46836;BME280;32573;51.290;6.926;2023-05-07T09:17:11;100237.50;;;19.31;100.00
46836;BME280;32573;51.290;6.926;2023-05-07T09:19:40;100245.41;;;19.39;100.00
46836;BME280;32573;51.290;6.926;2023-05-07T09:22:08;100245.38;;;19.44;100.00
46836;BME280;32573;51.290;6.926;2023-05-07T09:24:47;100241.78;;;19.49;100.00
46836;BME280;32573;51.290;6.926;2023-05-07T09:27:18;100239.97;;;19.54;100.00
46836;BME280;32573;51.290;6.926;2023-05-07T09:29:47;100243.53;;;19.59;100.00
46836;BME280;32573;51.290;6.926;2023-05-07T09:32:18;100235.50;;;19.64;100.00
46836;BME280;32573;51.290;6.926;2023-05-07T09:34:46;100241.69;;;19.71;100.00
46836;BME280;32573;51.290;6.926;2023-05-07T09:37:18;100241.63;;;19.74;100.00
46836;BME280;32573;51.290;6.926;2023-05-07T09:39:48;100238.06;;;19.78;100.00
46836;BME280;32573;51.290;6.926;2023-05-07T09:42:23;100243.34;;;19.81;100.00
46836;BME280;32573;51.290;6.926;2023-05-07T09:44:54;100246.84;;;19.86;100.00
46836;BME280;32573;51.290;6.926;2023-05-07T09:47:32;100240.59;;;19.92;100.00
46836;BME280;32573;51.290;6.926;2023-05-07T09:50:05;100248.53;;;19.99;100.00
46836;BME280;32573;51.290;6.926;2023-05-07T09:52:39;100243.13;;;20.06;100.00
46836;BME280;32573;51.290;6.926;2023-05-07T09:55:10;100249.28;;;20.12;100.00
46836;BME280;32573;51.290;6.926;2023-05-07T09:57:40;100244.81;;;20.16;100.00
46836;BME280;32573;51.290;6.926;2023-05-07T10:00:11;100242.09;;;20.22;100.00
46836;BME280;32573;51.290;6.926;2023-05-07T10:02:57;100232.31;;;20.27;100.00
46836;BME280;32573;51.290;6.926;2023-05-07T10:05:38;100233.97;;;20.37;100.00
46836;BME280;32573;51.290;6.926;2023-05-07T10:08:08;100229.44;;;20.45;100.00
46836;BME280;32573;51.290;6.926;2023-05-07T10:10:39;100231.13;;;20.51;100.00
46836;BME280;32573;51.290;6.926;2023-05-07T10:13:12;100231.97;;;20.58;100.00
46836;BME280;32573;51.290;6.926;2023-05-07T10:15:47;100233.72;;;20.62;100.00
46836;BME280;32573;51.290;6.926;2023-05-07T10:18:18;100236.28;;;20.66;100.00
46836;BME280;32573;51.290;6.926;2023-05-07T10:20:52;100241.56;;;20.71;100.00
46836;BME280;32573;51.290;6.926;2023-05-07T10:23:23;100233.53;;;20.76;100.00
46836;BME280;32573;51.290;6.926;2023-05-07T10:25:57;100235.22;;;20.81;100.00
46836;BME280;32573;51.290;6.926;2023-05-07T10:28:32;100236.91;;;20.88;100.00
46836;BME280;32573;51.290;6.926;2023-05-07T10:31:10;100238.59;;;20.96;100.00
46836;BME280;32573;51.290;6.926;2023-05-07T10:33:48;100233.16;;;21.03;100.00
46836;BME280;32573;51.290;6.926;2023-05-07T10:36:23;100234.91;;;21.06;100.00
46836;BME280;32573;51.290;6.926;2023-05-07T10:38:53;100229.53;;;21.09;100.00
46836;BME280;32573;51.290;6.926;2023-05-07T10:41:23;100224.13;;;21.15;100.00
46836;BME280;32573;51.290;6.926;2023-05-07T10:43:53;100234.66;;;21.21;100.00
46836;BME280;32573;51.290;6.926;2023-05-07T10:46:29;100222.97;;;21.33;100.00
46836;BME280;32573;51.290;6.926;2023-05-07T10:49:09;100232.66;;;21.42;100.00
46836;BME280;32573;51.290;6.926;2023-05-07T10:52:14;100228.84;;;21.57;100.00
46836;BME280;32573;51.290;6.926;2023-05-07T10:55:21;100226.81;;;21.71;100.00
46836;BME280;32573;51.290;6.926;2023-05-07T10:58:27;100228.41;;;21.83;100.00
46836;BME280;32573;51.290;6.926;2023-05-07T11:01:50;100218.41;;;21.97;100.00
46836;BME280;32573;51.290;6.926;2023-05-07T11:04:28;100226.16;;;22.09;100.00
46836;BME280;32573;51.290;6.926;2023-05-07T11:07:29;100230.44;;;22.16;100.00
46836;BME280;32573;51.290;6.926;2023-05-07T11:10:10;100228.66;;;22.22;100.00
46836;BME280;32573;51.290;6.926;2023-05-07T11:12:57;100224.91;;;22.30;100.00
46836;BME280;32573;51.290;6.926;2023-05-07T11:15:39;100218.53;;;22.39;100.00
46836;BME280;32573;51.290;6.926;2023-05-07T11:18:46;100223.66;;;22.48;100.00
46836;BME280;32573;51.290;6.926;2023-05-07T11:21:32;100217.28;;;22.57;100.00
46836;BME280;32573;51.290;6.926;2023-05-07T11:24:20;100221.53;;;22.66;100.00
46836;BME280;32573;51.290;6.926;2023-05-07T11:26:55;100226.69;;;22.75;100.00
46836;BME280;32573;51.290;6.926;2023-05-07T11:29:25;100221.16;;;22.84;100.00
46836;BME280;32573;51.290;6.926;2023-05-07T11:32:00;100219.19;;;22.92;100.00
46836;BME280;32573;51.290;6.926;2023-05-07T11:34:36;100224.38;;;23.01;100.00
46836;BME280;32573;51.290;6.926;2023-05-07T11:37:06;100217.13;;;23.07;100.00
46836;BME280;32573;51.290;6.926;2023-05-07T11:39:47;100217.91;;;23.12;100.00
46836;BME280;32573;51.290;6.926;2023-05-07T11:42:25;100221.38;;;23.15;100.00
46836;BME280;32573;51.290;6.926;2023-05-07T11:44:54;100223.91;;;23.21;100.00
46836;BME280;32573;51.290;6.926;2023-05-07T11:47:22;100216.69;;;23.25;100.00
46836;BME280;32573;51.290;6.926;2023-05-07T11:49:52;100216.63;;;23.28;100.00
46836;BME280;32573;51.290;6.926;2023-05-07T11:52:23;100218.41;;;23.29;100.00
46836;BME280;32573;51.290;6.926;2023-05-07T11:54:53;100226.34;;;23.31;100.00
46836;BME280;32573;51.290;6.926;2023-05-07T11:57:23;100222.72;;;23.33;100.00
46836;BME280;32573;51.290;6.926;2023-05-07T11:59:53;100223.56;;;23.37;100.00
46836;BME280;32573;51.290;6.926;2023-05-07T12:02:22;100218.16;;;23.38;100.00
46836;BME280;32573;51.290;6.926;2023-05-07T12:04:52;100220.78;;;23.41;100.00
46836;BME280;32573;51.290;6.926;2023-05-07T12:07:23;100218.06;;;23.43;100.00
46836;BME280;32573;51.290;6.926;2023-05-07T12:09:53;100219.88;;;23.41;100.00
46836;BME280;32573;51.290;6.926;2023-05-07T12:12:22;100218.13;;;23.40;100.00
46836;BME280;32573;51.290;6.926;2023-05-07T12:14:50;100226.25;;;23.35;100.00
46836;BME280;32573;51.290;6.926;2023-05-07T12:17:19;100227.19;;;23.34;100.00
46836;BME280;32573;51.290;6.926;2023-05-07T12:19:51;100227.19;;;23.34;100.00
46836;BME280;32573;51.290;6.926;2023-05-07T12:22:22;100232.44;;;23.37;100.00
46836;BME280;32573;51.290;6.926;2023-05-07T12:24:57;100236.84;;;23.40;100.00
46836;BME280;32573;51.290;6.926;2023-05-07T12:27:26;100234.19;;;23.38;100.00
46836;BME280;32573;51.290;6.926;2023-05-07T12:29:57;100236.00;;;23.38;100.00
46836;BME280;32573;51.290;6.926;2023-05-07T12:32:26;100230.75;;;23.33;100.00
46836;BME280;32573;51.290;6.926;2023-05-07T12:34:55;100240.59;;;23.31;100.00
46836;BME280;32573;51.290;6.926;2023-05-07T12:37:26;100239.78;;;23.29;100.00
46836;BME280;32573;51.290;6.926;2023-05-07T12:40:05;100239.81;;;23.26;100.00
46836;BME280;32573;51.290;6.926;2023-05-07T12:42:35;100234.56;;;23.23;100.00
46836;BME280;32573;51.290;6.926;2023-05-07T12:45:08;100243.50;;;23.22;100.00
46836;BME280;32573;51.290;6.926;2023-05-07T12:47:38;100228.41;;;23.19;100.00
46836;BME280;32573;51.290;6.926;2023-05-07T12:50:07;100236.44;;;23.18;100.00
46836;BME280;32573;51.290;6.926;2023-05-07T12:52:37;100228.50;;;23.15;100.00
46836;BME280;32573;51.290;6.926;2023-05-07T12:55:06;100229.41;;;23.14;100.00
46836;BME280;32573;51.290;6.926;2023-05-07T12:57:38;100229.50;;;23.11;100.00
46836;BME280;32573;51.290;6.926;2023-05-07T13:00:08;100233.19;;;23.05;100.00
46836;BME280;32573;51.290;6.926;2023-05-07T13:02:39;100235.94;;;23.02;100.00